Time;durP1;ratioP1;P1;durP2;ratioP2;P2;SDS_P1;SDS_P2;PMS_P1;PMS_P2;Temp;Humidity;BMP_temperature;BMP_pressure;BME280_temperature;BME280_humidity;BME280_pressure;Samples;Min_cycle;Max_cycle;Signal;HPM_P1;HPM_P2
2022/09/26 00:01:20;;;;;;;7.15;2.13;;;10.80;99.90;;;;;;5092220;28;20035;-66
2022/09/26 00:03:52;;;;;;;6.50;2.10;;;10.70;99.90;;;;;;5102062;28;20051;-65
2022/09/26 00:06:18;;;;;;;5.97;2.05;;;10.80;99.90;;;;;;5100344;28;20483;-65
2022/09/26 00:08:46;;;;;;;7.20;2.20;;;10.80;99.90;;;;;;5101839;28;20043;-65
2022/09/26 00:11:16;;;;;;;6.50;2.08;;;10.80;99.90;;;;;;5094674;28;20610;-66
2022/09/26 00:13:42;;;;;;;4.50;2.20;;;10.70;99.90;;;;;;5098435;28;20050;-65
2022/09/26 00:16:10;;;;;;;4.18;1.95;;;10.80;99.90;;;;;;5084381;28;20415;-66
2022/09/26 00:18:36;;;;;;;5.65;2.03;;;10.80;99.90;;;;;;5100419;28;20032;-65
2022/09/26 00:21:08;;;;;;;6.05;2.20;;;10.70;99.90;;;;;;5088542;28;20836;-65
2022/09/26 00:23:34;;;;;;;7.88;2.40;;;10.70;99.90;;;;;;5088515;28;20052;-65
2022/09/26 00:26:00;;;;;;;4.22;1.75;;;10.70;99.90;;;;;;5098376;28;20410;-65
2022/09/26 00:28:26;;;;;;;5.65;1.95;;;10.80;99.90;;;;;;5092097;28;20031;-65
2022/09/26 00:30:53;;;;;;;4.72;1.83;;;10.80;99.90;;;;;;5092073;28;20093;-66
2022/09/26 00:33:19;;;;;;;9.52;2.40;;;10.70;99.90;;;;;;5098990;28;20336;-66
2022/09/26 00:35:52;;;;;;;6.95;2.00;;;10.80;99.90;;;;;;5098044;27;20040;-66
2022/09/26 00:38:19;;;;;;;5.63;1.92;;;10.70;99.90;;;;;;5095803;28;20032;-66
2022/09/26 00:40:45;;;;;;;5.05;1.88;;;10.70;99.90;;;;;;5094517;28;20047;-66
2022/09/26 00:43:34;;;;;;;5.18;2.00;;;10.80;99.90;;;;;;5090860;28;20135;-66
2022/09/26 00:46:36;;;;;;;5.78;1.50;;;10.70;99.90;;;;;;5093744;28;20043;-66
2022/09/26 00:49:04;;;;;;;5.18;2.10;;;10.80;99.90;;;;;;5101406;28;20035;-66
2022/09/26 00:51:33;;;;;;;4.70;1.75;;;10.70;99.90;;;;;;5093472;28;20044;-65
2022/09/26 00:54:00;;;;;;;6.53;1.88;;;10.80;99.90;;;;;;5093071;28;20125;-66
2022/09/26 00:56:32;;;;;;;4.68;1.42;;;10.70;99.90;;;;;;5099857;28;20115;-66
2022/09/26 00:59:28;;;;;;;5.25;1.40;;;10.70;99.90;;;;;;5095140;28;20068;-66
2022/09/26 01:01:56;;;;;;;2.92;1.33;;;10.70;99.90;;;;;;5095304;28;20059;-66
2022/09/26 01:04:24;;;;;;;5.75;1.38;;;10.70;99.90;;;;;;5102687;28;20089;-66
2022/09/26 01:06:51;;;;;;;8.95;1.40;;;10.70;99.90;;;;;;5096814;28;20402;-66
2022/09/26 01:09:18;;;;;;;3.38;1.02;;;10.70;99.90;;;;;;5102147;28;20069;-66
2022/09/26 01:11:44;;;;;;;4.20;1.10;;;10.70;99.90;;;;;;5089408;28;20094;-66
2022/09/26 01:14:11;;;;;;;9.55;1.50;;;10.70;99.90;;;;;;5092267;28;20115;-66
2022/09/26 01:16:40;;;;;;;7.43;1.33;;;10.70;99.90;;;;;;5089327;28;20417;-66
2022/09/26 01:19:46;;;;;;;4.97;1.20;;;10.70;99.90;;;;;;5095211;28;20036;-66
2022/09/26 01:22:12;;;;;;;4.32;1.40;;;10.70;99.90;;;;;;5066685;28;20044;-66
2022/09/26 01:25:14;;;;;;;4.40;1.30;;;10.70;99.90;;;;;;5098670;28;20391;-66
2022/09/26 01:28:13;;;;;;;7.07;1.70;;;10.70;99.90;;;;;;5100316;28;20028;-66
2022/09/26 01:30:41;;;;;;;5.35;1.20;;;10.60;99.90;;;;;;5088343;28;20054;-66
2022/09/26 01:33:26;;;;;;;4.68;1.25;;;10.60;99.90;;;;;;5095078;28;20036;-66
2022/09/26 01:36:03;;;;;;;6.55;1.58;;;10.70;99.90;;;;;;5096915;28;20123;-66
2022/09/26 01:38:41;;;;;;;4.68;1.30;;;10.60;99.90;;;;;;5101453;28;20356;-66
2022/09/26 01:41:07;;;;;;;4.03;1.50;;;10.70;99.90;;;;;;5095713;28;20364;-66
2022/09/26 01:43:41;;;;;;;4.50;1.40;;;10.70;99.90;;;;;;5097755;28;20044;-66
2022/09/26 01:46:27;;;;;;;5.68;1.52;;;10.70;99.90;;;;;;5100820;28;20124;-66
2022/09/26 01:49:10;;;;;;;6.57;1.80;;;10.70;99.90;;;;;;5101773;28;20058;-66
2022/09/26 01:51:44;;;;;;;4.00;1.67;;;10.70;99.90;;;;;;5095302;28;20111;-66
2022/09/26 01:54:17;;;;;;;5.00;1.42;;;10.70;99.90;;;;;;5101954;28;20044;-66
2022/09/26 01:56:45;;;;;;;11.90;2.40;;;10.60;99.90;;;;;;5105523;28;20130;-66
2022/09/26 01:59:44;;;;;;;7.95;1.70;;;10.70;99.90;;;;;;5096624;28;20040;-66
2022/09/26 02:02:18;;;;;;;7.05;1.90;;;10.70;99.90;;;;;;5086188;28;20399;-67
2022/09/26 02:04:46;;;;;;;5.03;2.00;;;10.60;99.90;;;;;;5098834;28;20044;-66
2022/09/26 02:07:20;;;;;;;6.65;2.35;;;10.60;99.90;;;;;;5098574;28;20040;-66
2022/09/26 02:09:58;;;;;;;4.47;2.57;;;10.60;99.90;;;;;;5097962;28;20137;-66
2022/09/26 02:12:38;;;;;;;8.20;2.50;;;10.60;99.90;;;;;;5098291;28;20449;-67
2022/09/26 02:15:11;;;;;;;5.90;2.28;;;10.60;99.90;;;;;;5101691;28;20070;-66
2022/09/26 02:17:50;;;;;;;7.20;2.50;;;10.70;99.90;;;;;;5100045;28;20091;-66
2022/09/26 02:20:30;;;;;;;6.13;2.00;;;10.70;99.90;;;;;;5088489;28;20480;-66
2022/09/26 02:22:58;;;;;;;5.38;2.35;;;10.70;99.90;;;;;;5098099;28;20100;-66
2022/09/26 02:25:24;;;;;;;9.13;2.42;;;10.80;99.90;;;;;;5095999;28;20588;-66
2022/09/26 02:27:50;;;;;;;7.22;2.40;;;10.80;99.90;;;;;;5099806;28;20123;-66
2022/09/26 02:30:16;;;;;;;3.33;2.20;;;10.70;99.90;;;;;;5102699;28;20189;-66
2022/09/26 02:32:42;;;;;;;6.72;2.70;;;10.80;99.90;;;;;;5101102;28;20044;-66
2022/09/26 02:37:52;;;;;;;8.77;2.88;;;10.80;99.90;;;;;;5090254;28;20845;-66
2022/09/26 02:40:24;;;;;;;4.97;2.85;;;10.90;99.90;;;;;;5078272;28;20044;-68
2022/09/26 02:43:17;;;;;;;4.97;2.95;;;10.90;99.90;;;;;;5102879;28;20031;-65
2022/09/26 02:46:04;;;;;;;6.45;2.90;;;10.90;99.90;;;;;;5066739;28;20500;-65
2022/09/26 02:48:43;;;;;;;6.32;3.47;;;10.90;99.90;;;;;;5104765;28;20481;-65
2022/09/26 02:51:43;;;;;;;7.93;3.17;;;10.90;99.90;;;;;;5100776;28;20043;-65
2022/09/26 02:54:45;;;;;;;7.95;2.90;;;10.90;99.90;;;;;;5092797;28;20048;-65
2022/09/26 02:57:32;;;;;;;6.03;3.30;;;10.90;99.90;;;;;;5080770;28;20055;-65
2022/09/26 03:00:19;;;;;;;8.93;3.58;;;10.90;99.90;;;;;;5094712;28;20046;-66
2022/09/26 03:03:09;;;;;;;7.63;3.75;;;10.90;99.90;;;;;;5098846;28;20047;-65
2022/09/26 03:05:39;;;;;;;7.03;3.60;;;10.90;99.90;;;;;;5100076;28;20054;-65
2022/09/26 03:08:09;;;;;;;9.13;3.72;;;10.90;99.90;;;;;;5097233;28;20032;-66
2022/09/26 03:10:36;;;;;;;6.38;3.92;;;10.90;99.90;;;;;;5093453;28;20610;-66
2022/09/26 03:13:07;;;;;;;8.52;4.07;;;10.90;99.90;;;;;;5086193;28;20325;-66
2022/09/26 03:15:34;;;;;;;9.18;4.47;;;10.90;99.90;;;;;;5098172;27;20087;-66
2022/09/26 03:18:02;;;;;;;5.55;3.63;;;10.90;99.90;;;;;;5092811;28;20036;-65
2022/09/26 03:20:28;;;;;;;9.25;5.10;;;10.90;99.90;;;;;;5099420;28;20390;-65
2022/09/26 03:22:54;;;;;;;7.75;4.63;;;10.90;99.90;;;;;;5094435;28;20040;-66
2022/09/26 03:25:23;;;;;;;11.77;4.95;;;10.90;99.90;;;;;;5096828;28;20047;-66
2022/09/26 03:27:49;;;;;;;6.72;4.55;;;10.80;99.90;;;;;;5094088;28;20047;-66
2022/09/26 03:30:16;;;;;;;7.63;4.80;;;10.80;99.90;;;;;;5098231;28;20541;-67
2022/09/26 03:32:42;;;;;;;9.25;4.80;;;10.80;99.90;;;;;;5085408;28;20052;-67
2022/09/26 03:35:08;;;;;;;10.70;4.82;;;10.80;99.90;;;;;;5095697;28;20050;-66
2022/09/26 03:37:36;;;;;;;11.43;5.25;;;10.80;99.90;;;;;;5095522;28;20411;-67
2022/09/26 03:40:08;;;;;;;7.55;4.25;;;10.80;99.90;;;;;;5090665;28;20032;-66
2022/09/26 03:42:34;;;;;;;6.07;4.30;;;10.80;99.90;;;;;;5097299;28;20450;-66
2022/09/26 03:45:01;;;;;;;8.52;4.80;;;10.80;99.90;;;;;;5093533;28;20114;-66
2022/09/26 03:47:27;;;;;;;7.75;4.70;;;10.80;99.90;;;;;;5096046;28;20448;-67
2022/09/26 03:49:53;;;;;;;7.57;4.50;;;10.80;99.90;;;;;;5095645;28;20044;-67
2022/09/26 03:52:19;;;;;;;7.32;4.60;;;10.80;99.90;;;;;;5092322;28;20397;-66
2022/09/26 03:54:45;;;;;;;6.97;4.47;;;10.70;99.90;;;;;;5092514;28;20067;-66
2022/09/26 03:57:13;;;;;;;11.00;5.40;;;10.70;99.90;;;;;;5097044;28;20040;-66
2022/09/26 03:59:38;;;;;;;6.68;4.68;;;10.80;99.90;;;;;;5091089;28;20034;-66
2022/09/26 04:02:04;;;;;;;6.80;4.68;;;10.80;99.90;;;;;;5085485;28;20036;-66
2022/09/26 04:04:31;;;;;;;8.43;5.40;;;10.80;99.90;;;;;;5098893;28;20035;-66
2022/09/26 04:06:57;;;;;;;7.53;5.57;;;10.80;99.90;;;;;;5095280;28;20078;-66
2022/09/26 04:09:23;;;;;;;12.43;5.70;;;10.70;99.90;;;;;;5088424;28;20480;-66
2022/09/26 04:11:50;;;;;;;11.05;5.90;;;10.70;99.90;;;;;;5093684;28;20043;-66
2022/09/26 04:14:16;;;;;;;12.30;6.10;;;10.70;99.90;;;;;;5094225;28;20059;-66
2022/09/26 04:16:42;;;;;;;12.73;6.50;;;10.70;99.90;;;;;;5095091;28;20047;-66
2022/09/26 04:19:08;;;;;;;11.82;6.45;;;10.60;99.90;;;;;;5096440;28;20059;-66
2022/09/26 04:21:34;;;;;;;10.43;6.20;;;10.70;99.90;;;;;;5100045;28;20081;-67
2022/09/26 04:24:01;;;;;;;8.90;5.80;;;10.70;99.90;;;;;;5092821;28;20553;-65
2022/09/26 04:26:27;;;;;;;10.50;6.20;;;10.70;99.90;;;;;;5090546;28;20119;-66
2022/09/26 04:28:56;;;;;;;11.20;6.97;;;10.70;99.90;;;;;;5090608;28;20127;-66
2022/09/26 04:31:22;;;;;;;8.73;6.60;;;10.60;99.90;;;;;;5095019;28;20048;-66
2022/09/26 04:33:49;;;;;;;13.98;7.35;;;10.70;99.90;;;;;;5096152;28;20564;-66
2022/09/26 04:36:15;;;;;;;9.45;6.13;;;10.60;99.90;;;;;;5095835;28;20044;-66
2022/09/26 04:38:41;;;;;;;10.52;6.45;;;10.60;99.90;;;;;;5097789;28;20910;-66
2022/09/26 04:41:12;;;;;;;11.30;6.68;;;10.60;99.90;;;;;;5097550;28;20104;-67
2022/09/26 04:43:39;;;;;;;10.65;6.50;;;10.60;99.90;;;;;;5094373;27;20233;-66
2022/09/26 04:46:10;;;;;;;10.00;6.22;;;10.60;99.90;;;;;;5099627;28;20055;-66
2022/09/26 04:48:36;;;;;;;13.18;6.80;;;10.60;99.90;;;;;;5094605;28;20035;-66
2022/09/26 04:51:06;;;;;;;10.52;7.35;;;10.50;99.90;;;;;;5082431;28;20506;-67
2022/09/26 04:53:33;;;;;;;10.18;7.65;;;10.60;99.90;;;;;;5093096;28;20087;-67
2022/09/26 04:55:59;;;;;;;11.95;7.95;;;10.50;99.90;;;;;;5095237;28;20048;-67
2022/09/26 04:58:25;;;;;;;13.95;8.18;;;10.60;99.90;;;;;;5094202;28;20484;-66
2022/09/26 05:00:51;;;;;;;12.05;7.72;;;10.60;99.90;;;;;;5094607;28;20047;-68
2022/09/26 05:03:17;;;;;;;12.13;8.15;;;10.60;99.90;;;;;;5095673;28;20048;-67
2022/09/26 05:05:46;;;;;;;11.63;7.68;;;10.50;99.90;;;;;;5093329;28;20096;-68
2022/09/26 05:08:13;;;;;;;11.32;7.93;;;10.60;99.90;;;;;;5092198;28;20405;-68
2022/09/26 05:10:40;;;;;;;10.60;7.97;;;10.60;99.90;;;;;;5084318;28;20062;-67
2022/09/26 05:13:06;;;;;;;13.13;7.78;;;10.60;99.90;;;;;;5091448;28;20046;-67
2022/09/26 05:15:37;;;;;;;12.10;8.45;;;10.60;99.90;;;;;;5090823;28;20092;-67
2022/09/26 05:18:06;;;;;;;12.40;8.20;;;10.60;99.90;;;;;;5094026;28;20047;-67
2022/09/26 05:20:36;;;;;;;12.55;8.30;;;10.50;99.90;;;;;;5091783;28;21048;-66
2022/09/26 05:23:04;;;;;;;14.10;8.07;;;10.50;99.90;;;;;;5090189;28;20044;-67
2022/09/26 05:28:21;;;;;;;11.50;8.70;;;10.50;99.90;;;;;;5097859;28;20159;-65
2022/09/26 05:30:49;;;;;;;12.75;8.88;;;10.50;99.90;;;;;;5092801;28;20512;-65
2022/09/26 05:33:14;;;;;;;13.65;8.73;;;10.50;99.90;;;;;;5085667;28;20040;-64
2022/09/26 05:35:40;;;;;;;12.60;8.30;;;10.50;99.90;;;;;;5094489;28;20109;-64
2022/09/26 05:38:06;;;;;;;12.73;7.68;;;10.50;99.90;;;;;;5091228;28;20040;-65
2022/09/26 05:43:15;;;;;;;11.97;8.30;;;10.40;99.90;;;;;;5088088;28;20066;-65
2022/09/26 05:45:41;;;;;;;11.05;7.90;;;10.40;99.90;;;;;;5070290;28;20059;-64
2022/09/26 05:48:07;;;;;;;13.63;8.77;;;10.40;99.90;;;;;;5091039;28;20037;-65
2022/09/26 05:50:33;;;;;;;10.80;7.57;;;10.40;99.90;;;;;;5092470;28;20055;-64
2022/09/26 05:53:00;;;;;;;13.60;8.05;;;10.40;99.90;;;;;;5091187;28;20050;-65
2022/09/26 05:55:27;;;;;;;12.45;8.15;;;10.40;99.90;;;;;;5085788;28;20048;-65
2022/09/26 05:57:57;;;;;;;14.32;8.40;;;10.40;99.90;;;;;;5090410;28;20036;-65
2022/09/26 06:00:23;;;;;;;12.40;8.45;;;10.30;99.90;;;;;;5087091;28;20080;-64
2022/09/26 06:03:02;;;;;;;13.00;8.00;;;10.40;99.90;;;;;;5087371;28;20119;-65
2022/09/26 06:05:29;;;;;;;12.60;7.32;;;10.30;99.90;;;;;;5088942;28;20053;-65
2022/09/26 06:07:57;;;;;;;10.00;7.70;;;10.30;99.90;;;;;;5092443;28;20104;-64
2022/09/26 06:10:23;;;;;;;9.20;7.18;;;10.30;99.90;;;;;;5087996;28;20109;-64
2022/09/26 06:12:49;;;;;;;9.70;8.07;;;10.30;99.90;;;;;;5092956;28;20065;-65
2022/09/26 06:15:15;;;;;;;11.93;8.10;;;10.30;99.90;;;;;;5093191;28;20032;-65
2022/09/26 06:17:41;;;;;;;12.75;7.18;;;10.30;99.90;;;;;;5098709;28;20040;-65
2022/09/26 06:20:07;;;;;;;10.55;6.78;;;10.30;99.90;;;;;;5096370;28;20101;-64
2022/09/26 06:22:40;;;;;;;13.00;7.50;;;10.30;99.90;;;;;;5096000;28;20035;-64
2022/09/26 06:25:08;;;;;;;12.65;7.45;;;10.30;99.90;;;;;;5095030;28;20127;-64
2022/09/26 06:27:37;;;;;;;10.75;7.68;;;10.30;99.90;;;;;;5095355;28;20035;-64
2022/09/26 06:30:09;;;;;;;11.32;7.68;;;10.30;99.90;;;;;;5094487;28;20083;-64
2022/09/26 06:32:35;;;;;;;11.80;6.40;;;10.30;99.90;;;;;;5100164;28;20036;-65
2022/09/26 06:35:02;;;;;;;9.88;6.40;;;10.30;99.90;;;;;;5095315;28;20166;-64
2022/09/26 06:37:28;;;;;;;10.05;7.00;;;10.30;99.90;;;;;;5098096;28;20036;-64
2022/09/26 06:39:53;;;;;;;9.90;6.68;;;10.30;99.90;;;;;;5092380;28;20158;-65
2022/09/26 06:42:19;;;;;;;11.85;6.35;;;10.40;99.90;;;;;;5098232;28;20394;-64
2022/09/26 06:44:45;;;;;;;9.60;5.75;;;10.30;99.90;;;;;;5098238;28;20048;-64
2022/09/26 06:47:11;;;;;;;8.18;5.53;;;10.30;99.90;;;;;;5093302;28;20136;-64
2022/09/26 06:49:37;;;;;;;11.75;6.38;;;10.30;99.90;;;;;;5092416;28;20493;-65
2022/09/26 06:52:03;;;;;;;9.07;5.63;;;10.30;99.90;;;;;;5100904;28;20052;-65
2022/09/26 06:54:29;;;;;;;8.05;5.50;;;10.30;99.90;;;;;;5099456;28;20055;-65
2022/09/26 06:56:55;;;;;;;9.15;6.05;;;10.30;99.90;;;;;;5096002;28;20113;-64
2022/09/26 06:59:22;;;;;;;9.52;5.30;;;10.30;99.90;;;;;;5098307;28;20039;-65
2022/09/26 07:01:48;;;;;;;9.90;5.68;;;10.30;99.90;;;;;;5100383;28;20413;-65
2022/09/26 07:04:14;;;;;;;6.07;4.47;;;10.30;99.90;;;;;;5098038;28;20075;-64
2022/09/26 07:06:41;;;;;;;9.05;5.13;;;10.30;99.90;;;;;;5097724;28;20036;-65
2022/09/26 07:09:07;;;;;;;7.28;4.50;;;10.30;99.90;;;;;;5099572;28;20051;-65
2022/09/26 07:11:33;;;;;;;8.00;4.75;;;10.30;99.90;;;;;;5093810;28;20421;-64
2022/09/26 07:14:00;;;;;;;9.10;4.70;;;10.30;99.90;;;;;;5091353;28;20059;-65
2022/09/26 07:16:27;;;;;;;7.93;4.43;;;10.30;99.90;;;;;;5090068;28;20127;-65
2022/09/26 07:18:56;;;;;;;7.88;4.72;;;10.30;99.90;;;;;;5093167;28;20423;-65
2022/09/26 07:21:22;;;;;;;9.13;4.75;;;10.30;99.90;;;;;;5096273;28;20093;-65
2022/09/26 07:23:47;;;;;;;10.93;4.82;;;10.30;99.90;;;;;;5093504;28;20436;-65
2022/09/26 07:26:13;;;;;;;9.35;5.00;;;10.30;99.90;;;;;;5092746;28;20036;-65
2022/09/26 07:28:39;;;;;;;10.23;4.45;;;10.30;99.90;;;;;;5094064;28;20399;-65
2022/09/26 07:31:05;;;;;;;9.07;4.60;;;10.20;99.90;;;;;;5093153;28;20395;-65
2022/09/26 07:33:30;;;;;;;7.25;4.45;;;10.30;99.90;;;;;;5095237;28;20115;-65
2022/09/26 07:35:56;;;;;;;10.75;4.53;;;10.30;99.90;;;;;;5099810;28;20043;-64
2022/09/26 07:38:23;;;;;;;8.63;4.30;;;10.30;99.90;;;;;;5093687;28;20040;-65
2022/09/26 07:40:53;;;;;;;8.15;3.67;;;10.30;99.90;;;;;;5097741;28;20487;-64
2022/09/26 07:43:22;;;;;;;7.90;3.97;;;10.30;99.90;;;;;;5094133;28;20036;-65
2022/09/26 07:51:19;;;;;;;7.75;4.47;;;10.30;99.90;;;;;;5096625;28;20090;-65
2022/09/26 07:53:45;;;;;;;8.00;4.07;;;10.30;99.90;;;;;;5096432;28;20064;-65
2022/09/26 07:56:11;;;;;;;7.38;4.15;;;10.40;99.90;;;;;;5100772;28;20063;-65
2022/09/26 07:58:41;;;;;;;6.07;3.97;;;10.30;99.90;;;;;;5091186;28;20032;-65
2022/09/26 08:01:10;;;;;;;8.32;4.07;;;10.30;99.90;;;;;;5094297;28;20080;-65
2022/09/26 08:03:37;;;;;;;10.32;4.00;;;10.40;99.90;;;;;;5094623;28;20059;-65
2022/09/26 08:06:03;;;;;;;7.43;3.90;;;10.50;99.90;;;;;;5093044;28;20039;-65
2022/09/26 08:08:29;;;;;;;9.68;3.67;;;10.50;99.90;;;;;;5089538;28;20039;-64
2022/09/26 08:10:56;;;;;;;7.20;3.67;;;10.50;99.90;;;;;;5095872;28;20085;-65
2022/09/26 08:13:24;;;;;;;5.70;3.88;;;10.60;99.90;;;;;;5094320;28;20055;-65
2022/09/26 08:15:50;;;;;;;9.18;3.85;;;10.60;99.90;;;;;;5096580;28;20040;-65
2022/09/26 08:18:15;;;;;;;7.95;3.58;;;10.70;99.90;;;;;;5098492;28;20087;-65
2022/09/26 08:20:46;;;;;;;8.00;3.85;;;10.70;99.90;;;;;;5103174;28;20032;-65
2022/09/26 08:23:15;;;;;;;7.40;3.28;;;10.80;99.90;;;;;;5087255;28;20048;-65
2022/09/26 08:25:41;;;;;;;6.80;3.35;;;10.80;99.90;;;;;;5090205;28;20169;-65
2022/09/26 08:28:11;;;;;;;7.30;3.78;;;10.90;99.90;;;;;;5091178;28;20059;-65
2022/09/26 08:30:40;;;;;;;5.65;3.47;;;10.90;99.90;;;;;;5095731;28;20040;-65
2022/09/26 08:33:07;;;;;;;10.20;4.30;;;10.90;99.90;;;;;;5088883;28;20035;-65
2022/09/26 08:35:37;;;;;;;7.13;3.65;;;11.00;99.90;;;;;;5095941;28;20056;-65
2022/09/26 08:38:07;;;;;;;6.00;3.20;;;11.00;99.90;;;;;;5092908;28;20032;-65
2022/09/26 08:40:54;;;;;;;7.85;3.13;;;11.00;99.90;;;;;;5085708;28;20051;-65
2022/09/26 08:44:02;;;;;;;4.90;2.80;;;11.10;99.90;;;;;;5086919;28;20121;-65
2022/09/26 08:46:58;;;;;;;5.32;2.88;;;11.10;99.90;;;;;;5082600;28;20380;-65
2022/09/26 08:49:40;;;;;;;5.15;3.00;;;11.10;99.90;;;;;;5087422;28;20075;-65
2022/09/26 08:52:19;;;;;;;5.43;2.60;;;11.20;99.90;;;;;;5090992;28;20399;-64
2022/09/26 08:54:46;;;;;;;7.32;2.78;;;11.20;99.90;;;;;;5091293;28;20074;-65
2022/09/26 08:57:33;;;;;;;7.47;2.90;;;11.20;99.90;;;;;;5073032;28;20067;-64
2022/09/26 09:00:03;;;;;;;8.48;3.13;;;11.20;99.90;;;;;;5094700;28;21846;-65
2022/09/26 09:02:44;;;;;;;6.53;2.97;;;11.20;99.90;;;;;;5084906;28;20032;-65
2022/09/26 09:05:32;;;;;;;5.80;2.90;;;11.30;99.90;;;;;;5095769;28;20452;-65
2022/09/26 09:08:00;;;;;;;7.07;2.50;;;11.40;99.90;;;;;;5096093;28;20555;-65
2022/09/26 09:10:40;;;;;;;8.20;2.67;;;11.50;99.90;;;;;;5089964;28;20048;-65
2022/09/26 09:13:24;;;;;;;9.30;3.00;;;11.50;99.90;;;;;;5087606;28;20040;-65
2022/09/26 09:16:25;;;;;;;5.20;3.03;;;11.60;99.90;;;;;;5091242;28;20132;-65
2022/09/26 09:19:09;;;;;;;9.32;3.33;;;11.70;99.90;;;;;;5090301;28;20379;-65
2022/09/26 09:22:00;;;;;;;6.18;3.08;;;11.70;99.90;;;;;;5071756;28;20071;-65
2022/09/26 09:24:45;;;;;;;5.70;2.95;;;11.80;99.90;;;;;;5061527;28;20064;-65
2022/09/26 09:27:29;;;;;;;7.07;3.17;;;11.80;99.90;;;;;;5051040;28;20119;-65
2022/09/26 09:30:17;;;;;;;6.75;2.85;;;11.80;99.90;;;;;;5052328;28;20091;-65
2022/09/26 09:32:58;;;;;;;5.00;3.00;;;11.70;99.90;;;;;;5049691;28;20045;-65
2022/09/26 09:35:49;;;;;;;7.50;3.20;;;11.80;99.90;;;;;;5051683;28;20399;-65
2022/09/26 09:38:21;;;;;;;7.30;3.53;;;11.80;99.90;;;;;;5051251;28;20446;-65
2022/09/26 09:41:12;;;;;;;7.00;3.40;;;11.90;99.90;;;;;;5053209;28;20037;-65
2022/09/26 09:43:44;;;;;;;4.97;3.08;;;11.90;99.90;;;;;;5051018;28;20053;-65
2022/09/26 09:46:28;;;;;;;7.70;3.53;;;11.90;99.90;;;;;;5055522;28;20587;-65
2022/09/26 09:49:17;;;;;;;7.78;3.50;;;11.90;99.90;;;;;;5054651;28;20118;-65
2022/09/26 09:52:20;;;;;;;8.85;3.67;;;11.90;99.90;;;;;;5050701;28;20048;-65
2022/09/26 09:55:05;;;;;;;7.15;3.40;;;11.90;99.90;;;;;;5055735;28;20085;-66
2022/09/26 09:57:52;;;;;;;7.68;3.60;;;11.90;99.90;;;;;;5053052;28;20116;-65
2022/09/26 10:00:23;;;;;;;11.45;3.97;;;11.90;99.90;;;;;;5052344;28;20036;-66
2022/09/26 10:02:59;;;;;;;4.80;2.85;;;11.90;99.90;;;;;;5058149;28;20052;-65
2022/09/26 10:05:43;;;;;;;6.05;3.85;;;11.90;99.90;;;;;;5060283;28;20134;-65
2022/09/26 10:08:21;;;;;;;8.07;3.45;;;11.90;99.90;;;;;;5060671;28;20045;-65
2022/09/26 10:10:56;;;;;;;6.15;3.55;;;11.90;99.90;;;;;;5058443;28;20383;-65
2022/09/26 10:13:25;;;;;;;9.32;3.75;;;12.00;99.90;;;;;;5062369;28;20476;-65
2022/09/26 10:16:00;;;;;;;10.57;3.38;;;12.00;99.90;;;;;;5055709;28;20102;-65
2022/09/26 10:18:25;;;;;;;7.60;3.53;;;12.00;99.90;;;;;;5056064;28;20109;-66
2022/09/26 10:21:10;;;;;;;9.30;3.53;;;12.00;99.90;;;;;;5052212;28;20499;-65
2022/09/26 10:23:40;;;;;;;9.35;3.53;;;12.00;99.90;;;;;;5051341;28;20045;-65
2022/09/26 10:26:08;;;;;;;7.10;3.40;;;12.10;99.90;;;;;;5052105;28;20625;-66
2022/09/26 10:28:51;;;;;;;8.02;3.45;;;12.10;99.90;;;;;;5056345;28;20037;-66
2022/09/26 10:31:37;;;;;;;8.07;3.38;;;12.10;99.90;;;;;;5052392;28;20427;-66
2022/09/26 10:34:22;;;;;;;7.47;3.38;;;12.10;99.90;;;;;;5042539;28;20087;-66
2022/09/26 10:36:47;;;;;;;6.97;3.40;;;12.00;99.90;;;;;;5056781;28;20047;-66
2022/09/26 10:42:14;;;;;;;5.85;3.47;;;12.00;99.90;;;;;;5053832;28;20086;-66
2022/09/26 10:44:41;;;;;;;8.77;3.53;;;12.00;99.90;;;;;;5051039;28;20029;-66
2022/09/26 10:47:18;;;;;;;6.68;3.40;;;12.00;99.90;;;;;;5052172;28;20039;-66
2022/09/26 10:49:53;;;;;;;8.13;3.70;;;12.00;99.90;;;;;;5052016;28;20528;-65
2022/09/26 10:52:23;;;;;;;6.82;2.97;;;12.00;99.90;;;;;;5046591;28;20372;-66
2022/09/26 10:55:05;;;;;;;5.60;3.25;;;12.00;99.90;;;;;;5052623;28;20092;-66
2022/09/26 10:57:44;;;;;;;5.90;3.40;;;12.00;99.90;;;;;;5055499;28;20388;-65
2022/09/26 11:00:20;;;;;;;6.57;3.75;;;12.00;99.90;;;;;;5054954;28;20040;-66
2022/09/26 11:02:51;;;;;;;8.27;3.90;;;12.00;99.90;;;;;;5061993;28;20102;-65
2022/09/26 11:08:09;;;;;;;4.88;3.40;;;12.00;99.90;;;;;;5059813;28;20055;-64
2022/09/26 11:10:40;;;;;;;10.57;3.35;;;12.00;99.90;;;;;;5053923;28;20491;-65
2022/09/26 11:13:17;;;;;;;7.40;3.50;;;12.00;99.90;;;;;;5047384;28;20060;-65
2022/09/26 11:16:00;;;;;;;6.03;3.20;;;12.00;99.90;;;;;;5053225;28;20439;-65
2022/09/26 11:18:38;;;;;;;8.40;4.00;;;12.00;99.90;;;;;;5059429;28;20079;-65
2022/09/26 11:21:16;;;;;;;10.40;4.18;;;12.00;99.90;;;;;;5061449;28;20036;-65
2022/09/26 11:23:56;;;;;;;8.57;3.58;;;12.00;99.90;;;;;;5055048;28;20457;-66
2022/09/26 11:26:34;;;;;;;6.05;3.30;;;12.00;99.90;;;;;;5055182;28;20114;-66
2022/09/26 11:29:33;;;;;;;7.57;3.25;;;11.90;99.90;;;;;;5058125;28;20173;-65
2022/09/26 11:31:59;;;;;;;9.48;3.80;;;11.80;99.90;;;;;;5015196;28;20552;-65
2022/09/26 11:34:30;;;;;;;10.32;4.25;;;11.90;99.90;;;;;;5051894;28;20068;-65
2022/09/26 11:37:29;;;;;;;7.70;3.78;;;11.90;99.90;;;;;;5053523;28;20068;-66
2022/09/26 11:40:26;;;;;;;6.60;3.55;;;11.90;99.90;;;;;;5045641;28;20054;-65
2022/09/26 11:43:17;;;;;;;4.20;3.42;;;11.90;99.90;;;;;;5048911;28;20062;-65
2022/09/26 11:45:52;;;;;;;6.97;4.10;;;11.90;99.90;;;;;;5049223;28;20489;-65
2022/09/26 11:48:39;;;;;;;7.68;3.85;;;11.90;99.90;;;;;;5049495;28;20051;-65
2022/09/26 11:51:14;;;;;;;15.02;4.70;;;11.90;99.90;;;;;;5053253;28;20044;-65
2022/09/26 11:54:12;;;;;;;7.10;4.32;;;11.90;99.90;;;;;;5047835;28;20087;-67
2022/09/26 11:56:48;;;;;;;7.82;4.55;;;11.90;99.90;;;;;;5003579;28;20045;-65
2022/09/26 11:59:31;;;;;;;6.03;3.80;;;11.90;99.90;;;;;;5048744;28;20036;-65
2022/09/26 12:02:34;;;;;;;8.43;4.05;;;11.90;99.90;;;;;;5054523;28;20161;-65
2022/09/26 12:05:23;;;;;;;5.75;3.47;;;12.00;99.90;;;;;;5050020;28;20488;-65
2022/09/26 12:08:07;;;;;;;6.60;3.42;;;12.00;99.90;;;;;;5057699;28;20123;-66
2022/09/26 12:10:53;;;;;;;6.53;3.35;;;12.10;99.90;;;;;;5048562;28;20076;-65
2022/09/26 12:13:48;;;;;;;5.18;3.65;;;12.10;99.90;;;;;;5053223;28;20041;-65
2022/09/26 12:16:26;;;;;;;5.40;3.17;;;12.10;99.90;;;;;;5051965;28;20507;-65
2022/09/26 12:19:04;;;;;;;6.28;3.15;;;12.10;99.90;;;;;;5052653;28;20049;-65
2022/09/26 12:24:59;;;;;;;4.60;3.15;;;12.10;99.90;;;;;;5046055;28;20048;-65
2022/09/26 12:27:34;;;;;;;5.50;3.13;;;12.10;99.90;;;;;;5004986;28;20463;-65
2022/09/26 12:30:20;;;;;;;4.88;2.67;;;12.10;99.90;;;;;;5048762;28;20036;-65
2022/09/26 12:33:08;;;;;;;5.63;2.90;;;12.10;99.90;;;;;;5056177;28;20396;-65
2022/09/26 12:35:59;;;;;;;6.78;3.03;;;12.10;99.90;;;;;;5053555;28;20107;-65
2022/09/26 12:38:46;;;;;;;4.53;2.38;;;12.10;99.90;;;;;;5056966;28;20040;-65
2022/09/26 12:41:30;;;;;;;5.65;2.38;;;12.20;99.90;;;;;;5052373;28;20036;-65
2022/09/26 12:43:59;;;;;;;2.97;2.33;;;12.20;99.90;;;;;;5065197;28;20090;-65
2022/09/26 12:46:38;;;;;;;4.47;2.72;;;12.20;99.90;;;;;;5050856;28;20048;-65
2022/09/26 12:49:09;;;;;;;5.97;2.70;;;12.20;99.90;;;;;;5047560;28;20146;-65
2022/09/26 12:51:54;;;;;;;6.50;2.50;;;12.20;99.90;;;;;;5053510;28;20110;-65
2022/09/26 12:54:32;;;;;;;3.63;2.38;;;12.30;99.90;;;;;;5053231;28;20045;-65
2022/09/26 12:57:24;;;;;;;3.78;2.25;;;12.20;99.90;;;;;;5052325;28;20127;-65
2022/09/26 12:59:53;;;;;;;5.47;2.55;;;12.30;99.90;;;;;;5052592;28;20728;-65
2022/09/26 13:02:55;;;;;;;3.85;2.30;;;12.30;99.90;;;;;;5051773;28;20037;-65
2022/09/26 13:05:26;;;;;;;3.63;2.40;;;12.40;99.90;;;;;;5049664;28;20056;-65
2022/09/26 13:08:14;;;;;;;4.47;2.42;;;12.40;99.90;;;;;;5053340;28;20040;-66
2022/09/26 13:11:17;;;;;;;3.80;2.30;;;12.50;99.90;;;;;;5046314;28;20504;-66
2022/09/26 13:13:49;;;;;;;2.90;2.05;;;12.50;99.90;;;;;;5046877;28;20463;-65
2022/09/26 13:16:33;;;;;;;3.38;1.85;;;12.50;99.90;;;;;;5046359;28;20567;-65
2022/09/26 13:19:23;;;;;;;3.42;1.85;;;12.60;99.90;;;;;;5052781;28;20484;-65
2022/09/26 13:22:03;;;;;;;2.28;1.85;;;12.60;99.90;;;;;;5052525;28;20053;-65
2022/09/26 13:25:08;;;;;;;4.47;2.40;;;12.60;99.90;;;;;;5059783;28;20115;-66
2022/09/26 13:27:40;;;;;;;2.92;1.77;;;12.60;99.90;;;;;;5057377;28;20569;-65
2022/09/26 13:30:12;;;;;;;3.65;1.92;;;12.60;99.90;;;;;;5059831;28;20043;-65
2022/09/26 13:32:49;;;;;;;2.60;1.95;;;12.60;99.90;;;;;;5053891;28;20041;-65
2022/09/26 13:35:20;;;;;;;2.72;2.08;;;12.70;99.90;;;;;;5053523;28;20118;-66
2022/09/26 13:38:19;;;;;;;2.47;2.28;;;12.80;99.90;;;;;;5058007;28;20049;-65
2022/09/26 13:41:07;;;;;;;2.25;2.05;;;12.90;99.90;;;;;;5054730;28;20041;-65
2022/09/26 13:44:14;;;;;;;2.83;1.65;;;13.00;99.90;;;;;;5057699;28;20031;-65